createdAt,value
2023-05-14T00:01:21.583Z,99995.38
2023-05-14T00:06:23.453Z,99989.44
2023-05-14T00:11:25.271Z,99990.06
2023-05-14T00:16:27.252Z,99993.81
2023-05-14T00:21:29.168Z,99996.59
2023-05-14T00:26:31.082Z,99987.16
2023-05-14T00:31:33.040Z,99986.56
2023-05-14T00:36:35.127Z,99988.63
2023-05-14T00:41:37.093Z,99998.63
2023-05-14T00:46:38.978Z,100003.25
2023-05-14T00:51:40.916Z,100010.34
2023-05-14T00:56:46.111Z,100008.78
2023-05-14T01:01:48.126Z,100009.72
2023-05-14T01:07:06.266Z,100009.13
2023-05-14T01:12:21.493Z,100015.50
2023-05-14T01:17:26.178Z,100009.59
2023-05-14T01:22:28.098Z,100017.50
2023-05-14T01:27:50.078Z,100019.41
2023-05-14T01:32:53.781Z,100035.47
2023-05-14T01:37:59.723Z,100029.38
2023-05-14T01:43:01.694Z,100030.25
2023-05-14T01:48:05.110Z,100036.50
2023-05-14T01:53:07.202Z,100035.44
2023-05-14T01:58:09.087Z,100048.53
2023-05-14T02:03:10.974Z,100045.97
2023-05-14T02:08:12.901Z,100049.25
2023-05-14T02:13:15.541Z,100045.63
2023-05-14T02:18:17.601Z,100054.69
2023-05-14T02:23:25.650Z,100046.16
2023-05-14T02:28:33.174Z,100046.78
2023-05-14T02:33:35.136Z,100054.84
2023-05-14T02:38:37.064Z,100056.41
2023-05-14T02:43:38.982Z,100052.41
2023-05-14T02:48:40.876Z,100050.38
2023-05-14T02:53:42.837Z,100049.53
2023-05-14T02:58:44.740Z,100047.31
2023-05-14T03:03:46.504Z,100055.72
2023-05-14T03:08:48.560Z,100037.47
2023-05-14T03:13:50.408Z,100042.94
2023-05-14T03:18:52.156Z,100054.56
2023-05-14T03:23:54.033Z,100054.00
2023-05-14T03:28:56.028Z,100061.16
2023-05-14T03:33:58.029Z,100068.00
2023-05-14T03:38:59.855Z,100070.22
2023-05-14T03:44:01.882Z,100059.81
2023-05-14T03:49:03.982Z,100073.91
2023-05-14T03:54:06.468Z,100071.16
2023-05-14T03:59:08.326Z,100079.06
2023-05-14T04:04:10.410Z,100067.53
2023-05-14T04:09:12.343Z,100083.13
2023-05-14T04:14:14.251Z,100065.41
2023-05-14T04:19:16.205Z,100064.66
2023-05-14T04:24:18.258Z,100065.91
2023-05-14T04:29:20.066Z,100057.63
2023-05-14T04:34:21.933Z,100063.44
2023-05-14T04:39:23.840Z,100067.69
2023-05-14T04:44:25.710Z,100060.09
2023-05-14T04:49:27.741Z,100066.78
2023-05-14T04:54:29.632Z,100066.50
2023-05-14T04:59:31.516Z,100064.34
2023-05-14T05:04:33.417Z,100062.84
2023-05-14T05:09:35.272Z,100060.28
2023-05-14T05:14:37.130Z,100056.84
2023-05-14T05:19:43.753Z,100050.09
2023-05-14T05:24:47.066Z,100057.41
2023-05-14T05:29:50.458Z,100048.81
2023-05-14T05:34:52.384Z,100051.59
2023-05-14T05:39:54.282Z,100044.81
2023-05-14T05:44:56.185Z,100052.53
2023-05-14T05:49:58.096Z,100045.41
2023-05-14T05:54:59.948Z,100042.88
2023-05-14T06:00:01.969Z,100042.53
2023-05-14T06:05:07.708Z,100044.13
2023-05-14T06:10:09.670Z,100031.34
2023-05-14T06:15:11.782Z,100023.13
2023-05-14T06:20:13.769Z,100036.78
2023-05-14T06:25:15.569Z,100037.28
2023-05-14T06:30:17.370Z,100025.22
2023-05-14T06:35:19.352Z,100031.63
2023-05-14T06:40:21.434Z,100047.13
2023-05-14T06:45:23.307Z,100071.19
2023-05-14T06:50:25.391Z,100070.44
2023-05-14T06:55:27.421Z,100035.09
2023-05-14T07:00:30.004Z,100037.19
2023-05-14T07:05:31.974Z,100057.28
2023-05-14T07:10:33.850Z,100049.69
2023-05-14T07:15:35.645Z,100070.06
2023-05-14T07:20:37.473Z,100077.25
2023-05-14T07:25:39.292Z,100094.13
2023-05-14T07:30:41.069Z,100085.56
2023-05-14T07:35:42.860Z,100085.91
2023-05-14T07:40:44.663Z,100078.63
2023-05-14T07:45:46.480Z,100095.47
2023-05-14T07:50:49.106Z,100105.63
2023-05-14T07:55:50.938Z,100088.84
2023-05-14T08:00:52.739Z,100089.94
2023-05-14T08:05:54.518Z,100106.72
2023-05-14T08:10:56.371Z,100107.22
2023-05-14T08:15:58.315Z,100111.66
2023-05-14T08:21:01.091Z,100118.97
2023-05-14T08:26:04.580Z,100121.84
2023-05-14T08:31:06.419Z,100121.84
2023-05-14T08:36:08.486Z,100114.19
2023-05-14T08:41:10.029Z,100099.81
2023-05-14T08:46:12.899Z,100107.91
2023-05-14T08:51:14.675Z,100110.50
2023-05-14T08:56:16.876Z,100090.00
2023-05-14T09:01:19.066Z,100099.66
2023-05-14T09:06:20.881Z,100121.59
2023-05-14T09:11:22.637Z,100123.81
2023-05-14T09:16:25.759Z,100105.56
2023-05-14T09:21:28.373Z,100118.22
2023-05-14T09:26:32.072Z,100112.34
2023-05-14T09:31:34.212Z,100103.88
2023-05-14T09:36:36.039Z,100089.16
2023-05-14T09:41:37.820Z,100098.41
2023-05-14T09:46:39.591Z,100096.88
2023-05-14T09:51:41.451Z,100103.91
2023-05-14T09:56:43.451Z,100087.22
2023-05-14T10:01:45.280Z,100094.78
2023-05-14T10:06:47.108Z,100085.72
2023-05-14T10:11:49.668Z,100082.94
2023-05-14T10:16:51.625Z,100088.09
2023-05-14T10:21:57.059Z,100098.22
2023-05-14T10:26:58.900Z,100101.06
2023-05-14T10:32:03.803Z,100095.63
2023-05-14T10:37:07.860Z,100090.41
2023-05-14T10:42:15.574Z,100087.19
2023-05-14T10:47:17.339Z,100097.16
2023-05-14T10:52:19.359Z,100078.38
2023-05-14T10:57:21.362Z,100077.34
2023-05-14T11:02:30.836Z,100076.53
2023-05-14T11:07:39.371Z,100080.41
2023-05-14T11:12:43.358Z,100077.34
2023-05-14T11:17:45.711Z,100076.94
2023-05-14T11:22:48.471Z,100066.16
2023-05-14T11:27:50.340Z,100069.53
2023-05-14T11:32:53.452Z,100086.09
2023-05-14T11:37:55.297Z,100078.41
2023-05-14T11:42:57.067Z,100072.44
2023-05-14T11:47:58.896Z,100061.31
2023-05-14T11:53:00.817Z,100058.25
2023-05-14T11:58:02.621Z,100071.19
2023-05-14T12:03:04.557Z,100068.03
2023-05-14T12:08:41.673Z,100065.53
2023-05-14T12:13:43.389Z,100065.06
2023-05-14T12:18:45.179Z,100062.13
2023-05-14T12:23:46.998Z,100064.94
2023-05-14T12:28:48.771Z,100064.53
2023-05-14T12:33:50.564Z,100068.47
2023-05-14T12:38:58.975Z,100058.09
2023-05-14T12:44:02.590Z,100061.91
2023-05-14T12:49:04.383Z,100069.03
2023-05-14T12:54:06.148Z,100075.69
2023-05-14T12:59:07.949Z,100060.69
2023-05-14T13:04:10.531Z,100062.94
2023-05-14T13:09:12.281Z,100066.25
2023-05-14T13:14:14.091Z,100063.66
2023-05-14T13:19:15.953Z,100087.38
2023-05-14T13:24:17.741Z,100077.16
2023-05-14T13:29:19.529Z,100075.47
2023-05-14T13:34:21.347Z,100068.31
2023-05-14T13:39:23.148Z,100080.63
2023-05-14T13:44:25.116Z,100071.78
2023-05-14T13:49:26.955Z,100073.59
2023-05-14T13:54:28.741Z,100080.13
2023-05-14T13:59:30.530Z,100081.28
2023-05-14T14:04:32.323Z,100073.72
2023-05-14T14:09:34.129Z,100081.44
2023-05-14T14:14:36.197Z,100071.09
2023-05-14T14:19:37.961Z,100069.72
2023-05-14T14:24:39.744Z,100071.00
2023-05-14T14:29:41.574Z,100073.72
2023-05-14T14:34:43.369Z,100064.13
2023-05-14T14:39:45.143Z,100054.53
2023-05-14T14:44:46.925Z,100065.50
2023-05-14T14:49:48.705Z,100067.09
2023-05-14T14:54:50.668Z,100078.56
2023-05-14T14:59:52.457Z,100078.31
2023-05-14T15:04:54.409Z,100085.16
2023-05-14T15:09:56.196Z,100077.13
2023-05-14T15:14:58.002Z,100073.25
2023-05-14T15:19:59.763Z,100075.84
2023-05-14T15:25:01.706Z,100072.25
2023-05-14T15:30:06.546Z,100075.63
2023-05-14T15:35:08.760Z,100065.06
2023-05-14T15:40:11.459Z,100075.34
2023-05-14T15:45:13.392Z,100074.13
2023-05-14T15:50:15.312Z,100065.19
2023-05-14T15:55:17.185Z,100061.44
2023-05-14T16:00:19.278Z,100057.69
2023-05-14T16:05:21.109Z,100062.97
2023-05-14T16:10:23.265Z,100069.28
2023-05-14T16:15:25.071Z,100063.56
2023-05-14T16:20:26.842Z,100069.88
2023-05-14T16:25:29.902Z,100063.44
2023-05-14T16:30:31.789Z,100069.19
2023-05-14T16:35:33.737Z,100086.03
2023-05-14T16:40:35.499Z,100085.75
2023-05-14T16:45:37.279Z,100090.13
2023-05-14T16:50:39.076Z,100101.22
2023-05-14T16:55:40.994Z,100093.44
2023-05-14T17:00:42.796Z,100097.31
2023-05-14T17:05:44.608Z,100086.69
2023-05-14T17:10:46.440Z,100092.41
2023-05-14T17:15:48.296Z,100099.56
2023-05-14T17:20:50.134Z,100104.03
2023-05-14T17:25:51.910Z,100114.28
2023-05-14T17:30:53.700Z,100123.56
2023-05-14T17:35:55.553Z,100115.47
2023-05-14T17:40:57.307Z,100120.66
2023-05-14T17:45:59.123Z,100123.88
2023-05-14T17:51:00.907Z,100132.06
2023-05-14T17:56:02.772Z,100122.75
2023-05-14T18:01:04.729Z,100131.38
2023-05-14T18:06:06.663Z,100129.84
2023-05-14T18:11:08.694Z,100131.84
2023-05-14T18:16:10.779Z,100135.78
2023-05-14T18:21:12.750Z,100143.13
2023-05-14T18:26:14.753Z,100141.53
2023-05-14T18:31:16.737Z,100144.47
2023-05-14T18:36:18.654Z,100140.09
2023-05-14T18:41:20.534Z,100138.59
2023-05-14T18:46:22.556Z,100142.34
2023-05-14T18:51:24.436Z,100138.13
2023-05-14T18:56:26.299Z,100141.06
2023-05-14T19:01:28.286Z,100150.03
2023-05-14T19:06:30.343Z,100148.44
2023-05-14T19:11:32.276Z,100135.41
2023-05-14T19:16:34.283Z,100144.41
2023-05-14T19:21:36.288Z,100141.03
2023-05-14T19:26:38.214Z,100145.50
2023-05-14T19:31:40.337Z,100148.38
2023-05-14T19:36:42.246Z,100152.81
2023-05-14T19:41:44.232Z,100148.59
2023-05-14T19:46:46.302Z,100145.13
2023-05-14T19:51:48.268Z,100147.94
2023-05-14T19:56:50.239Z,100148.03
2023-05-14T20:01:52.132Z,100145.50
2023-05-14T20:06:54.158Z,100151.66
2023-05-14T20:11:56.054Z,100151.78
2023-05-14T20:16:58.056Z,100149.34
2023-05-14T20:22:00.055Z,100146.69
2023-05-14T20:27:02.087Z,100152.25
2023-05-14T20:32:04.179Z,100150.56
2023-05-14T20:37:06.250Z,100149.72
2023-05-14T20:42:08.297Z,100146.28
2023-05-14T20:47:10.215Z,100158.78
2023-05-14T20:52:13.091Z,100157.06
2023-05-14T20:57:15.167Z,100149.28
2023-05-14T21:02:17.330Z,100152.09
2023-05-14T21:07:19.213Z,100160.19
2023-05-14T21:12:21.092Z,100158.72
2023-05-14T21:17:23.017Z,100160.50
2023-05-14T21:22:25.187Z,100157.03
2023-05-14T21:27:27.120Z,100155.44
2023-05-14T21:32:29.008Z,100157.50
2023-05-14T21:37:30.922Z,100155.66
2023-05-14T21:42:32.837Z,100154.91
2023-05-14T21:47:34.750Z,100154.09
2023-05-14T21:52:37.288Z,100153.34
2023-05-14T21:57:39.005Z,100149.03
2023-05-14T22:02:40.953Z,100151.66
2023-05-14T22:07:42.928Z,100156.00
2023-05-14T22:12:45.136Z,100153.56
2023-05-14T22:17:47.137Z,100151.81
2023-05-14T22:22:49.153Z,100154.50
2023-05-14T22:27:51.106Z,100153.75
2023-05-14T22:32:53.010Z,100152.81
2023-05-14T22:37:55.000Z,100148.56
2023-05-14T22:42:57.055Z,100148.69
2023-05-14T22:47:58.981Z,100158.38
2023-05-14T22:53:00.887Z,100152.34
2023-05-14T22:58:02.984Z,100168.38
2023-05-14T23:03:05.012Z,100159.78
2023-05-14T23:08:06.992Z,100159.91
2023-05-14T23:13:08.913Z,100157.38
2023-05-14T23:18:10.985Z,100161.81
2023-05-14T23:23:13.058Z,100162.81
2023-05-14T23:28:15.066Z,100162.94
2023-05-14T23:33:16.898Z,100164.03
2023-05-14T23:38:18.867Z,100167.59
2023-05-14T23:43:20.787Z,100166.84
2023-05-14T23:48:22.750Z,100169.66
2023-05-14T23:53:24.620Z,100175.94
2023-05-14T23:58:26.573Z,100176.88
